Hlavní strana
METAR-TAF:

METAR-TAF

Letiště :

Jerez de la Frontera, Španělsko

zeměpisná šířka: 36-45N, zeměpisná délka: 006-04W, výška: 27 m

Aktuální stav počasí

Zpráva byla vytvořena před 35 minutami, v 21:30 UTC
Východojihovýchodní vítr 4 kt, proměnlivý mezi východním a jižním
Teplota 14°C
Vlhkost vzduchu 72%
Tlak 1017 hPa
Viditelnost 10 km a více
Skoro jasno ve výšce 4000 ft

METAR: LEJR 282130Z 12004KT 090V170 9999 FEW040 14/09 Q1017

Čas: 23:05 (22:05 UTC)

Předpověď počasí

Zpráva byla vytvořena před 5 hodinami a 5 minutami, v 17:00 UTC
Předpověď platná od 28 v 18 UTC do 01 v 18 UTC
vítr z různých směrů 2 kt
Viditelnost 10 km a více
Skoro jasno ve výšce 4000 ft
Pravděpodobnost 30% :
Dočasný
od 01 v 00 UTC do 01 v 10 UTC
Viditelnost: 4000 m
déšť

TAF: LEJR 281700Z 2818/0118 VRB02KT 9999 FEW040 TX18/0114Z TN10/0106Z PROB30 TEMPO 0100/0110 4000 RA

Stav a předpovědi počasí z více než 4 000 letišť (zprávy METAR a TAF).

Červené a žluté tečky na mapě představují dostupné meteorologické stanice.

Když kurzor umístíte na tečku, zobrazí se název stanice.

Pak kliknutím zobrazíte stav a předpověď počasí.

Chcete-li změnit mapu, kliknutím na zelené tlačítko se znaménkem +mapu přiblížíte, kliknutím na zelené tlačítko se znaménkem – mapu oddálíte a kliknutím na zelené šipky přejdete na sousední mapy.


METAR-TAF: